sensor_id;sensor_type;location;lat;lon;timestamp;P1;durP1;ratioP1;P2;durP2;ratioP2
55268;SDS011;41131;42.990;21.954;2022-10-17T00:00:09;47.05;;;31.23;;
55268;SDS011;41131;42.990;21.954;2022-10-17T00:02:35;45.40;;;36.30;;
55268;SDS011;41131;42.990;21.954;2022-10-17T00:05:02;49.78;;;34.85;;
55268;SDS011;41131;42.990;21.954;2022-10-17T00:07:29;55.42;;;38.85;;
55268;SDS011;41131;42.990;21.954;2022-10-17T00:10:04;42.47;;;29.13;;
55268;SDS011;41131;42.990;21.954;2022-10-17T00:12:31;44.15;;;28.52;;
55268;SDS011;41131;42.990;21.954;2022-10-17T00:14:57;33.97;;;24.02;;
55268;SDS011;41131;42.990;21.954;2022-10-17T00:17:23;37.08;;;26.58;;
55268;SDS011;41131;42.990;21.954;2022-10-17T00:19:49;40.25;;;27.67;;
55268;SDS011;41131;42.990;21.954;2022-10-17T00:22:15;45.08;;;29.75;;
55268;SDS011;41131;42.990;21.954;2022-10-17T00:24:41;41.53;;;27.10;;
55268;SDS011;41131;42.990;21.954;2022-10-17T00:27:07;45.07;;;28.97;;
55268;SDS011;41131;42.990;21.954;2022-10-17T00:29:33;33.00;;;25.08;;
55268;SDS011;41131;42.990;21.954;2022-10-17T00:31:59;31.90;;;23.45;;
55268;SDS011;41131;42.990;21.954;2022-10-17T00:34:27;31.25;;;22.90;;
55268;SDS011;41131;42.990;21.954;2022-10-17T00:36:54;37.58;;;27.15;;
55268;SDS011;41131;42.990;21.954;2022-10-17T00:39:20;38.50;;;26.92;;
55268;SDS011;41131;42.990;21.954;2022-10-17T00:41:47;36.38;;;24.73;;
55268;SDS011;41131;42.990;21.954;2022-10-17T00:46:54;59.05;;;35.00;;
55268;SDS011;41131;42.990;21.954;2022-10-17T00:49:20;38.80;;;26.42;;
55268;SDS011;41131;42.990;21.954;2022-10-17T00:51:51;34.53;;;23.58;;
55268;SDS011;41131;42.990;21.954;2022-10-17T00:54:20;33.38;;;23.10;;
55268;SDS011;41131;42.990;21.954;2022-10-17T00:56:46;30.60;;;22.52;;
55268;SDS011;41131;42.990;21.954;2022-10-17T00:59:13;33.83;;;23.10;;
55268;SDS011;41131;42.990;21.954;2022-10-17T01:01:40;33.17;;;23.23;;
55268;SDS011;41131;42.990;21.954;2022-10-17T01:04:07;34.85;;;23.85;;
55268;SDS011;41131;42.990;21.954;2022-10-17T01:06:34;38.70;;;26.73;;
55268;SDS011;41131;42.990;21.954;2022-10-17T01:09:00;39.60;;;27.50;;
55268;SDS011;41131;42.990;21.954;2022-10-17T01:16:45;42.17;;;27.17;;
55268;SDS011;41131;42.990;21.954;2022-10-17T01:21:47;33.25;;;21.85;;
55268;SDS011;41131;42.990;21.954;2022-10-17T01:32:15;31.77;;;19.13;;
55268;SDS011;41131;42.990;21.954;2022-10-17T01:38:12;26.67;;;18.73;;
55268;SDS011;41131;42.990;21.954;2022-10-17T01:40:19;31.23;;;23.63;;
55268;SDS011;41131;42.990;21.954;2022-10-17T01:45:15;24.08;;;18.48;;
55268;SDS011;41131;42.990;21.954;2022-10-17T01:47:45;32.38;;;17.33;;
55268;SDS011;41131;42.990;21.954;2022-10-17T01:50:14;26.00;;;17.80;;
55268;SDS011;41131;42.990;21.954;2022-10-17T01:52:46;26.45;;;17.63;;
55268;SDS011;41131;42.990;21.954;2022-10-17T01:55:14;27.67;;;20.92;;
55268;SDS011;41131;42.990;21.954;2022-10-17T01:57:49;30.63;;;20.52;;
55268;SDS011;41131;42.990;21.954;2022-10-17T02:00:25;34.80;;;21.67;;
55268;SDS011;41131;42.990;21.954;2022-10-17T02:02:54;33.53;;;21.33;;
55268;SDS011;41131;42.990;21.954;2022-10-17T02:05:22;27.15;;;18.45;;
55268;SDS011;41131;42.990;21.954;2022-10-17T02:07:49;27.35;;;18.70;;
55268;SDS011;41131;42.990;21.954;2022-10-17T02:10:18;26.65;;;18.23;;
55268;SDS011;41131;42.990;21.954;2022-10-17T02:12:58;31.25;;;19.70;;
55268;SDS011;41131;42.990;21.954;2022-10-17T02:20:28;19.35;;;13.95;;
55268;SDS011;41131;42.990;21.954;2022-10-17T02:23:18;22.10;;;15.07;;
55268;SDS011;41131;42.990;21.954;2022-10-17T02:25:45;22.58;;;14.30;;
55268;SDS011;41131;42.990;21.954;2022-10-17T02:28:20;18.85;;;14.05;;
55268;SDS011;41131;42.990;21.954;2022-10-17T02:33:34;19.23;;;13.65;;
55268;SDS011;41131;42.990;21.954;2022-10-17T02:36:03;24.52;;;13.90;;
55268;SDS011;41131;42.990;21.954;2022-10-17T02:38:30;21.48;;;14.57;;
55268;SDS011;41131;42.990;21.954;2022-10-17T02:40:57;23.60;;;12.77;;
55268;SDS011;41131;42.990;21.954;2022-10-17T02:43:23;18.98;;;12.75;;
55268;SDS011;41131;42.990;21.954;2022-10-17T02:45:50;17.63;;;12.32;;
55268;SDS011;41131;42.990;21.954;2022-10-17T02:48:33;16.80;;;12.13;;
55268;SDS011;41131;42.990;21.954;2022-10-17T02:53:37;19.50;;;12.02;;
55268;SDS011;41131;42.990;21.954;2022-10-17T02:56:07;20.80;;;12.05;;
55268;SDS011;41131;42.990;21.954;2022-10-17T02:58:34;17.75;;;12.18;;
55268;SDS011;41131;42.990;21.954;2022-10-17T03:01:01;23.13;;;13.50;;
55268;SDS011;41131;42.990;21.954;2022-10-17T03:03:30;18.20;;;12.77;;
55268;SDS011;41131;42.990;21.954;2022-10-17T03:05:56;22.92;;;12.98;;
55268;SDS011;41131;42.990;21.954;2022-10-17T03:08:23;22.33;;;12.18;;
55268;SDS011;41131;42.990;21.954;2022-10-17T03:10:49;17.88;;;12.35;;
55268;SDS011;41131;42.990;21.954;2022-10-17T03:13:15;19.00;;;12.60;;
55268;SDS011;41131;42.990;21.954;2022-10-17T03:15:41;25.58;;;15.70;;
55268;SDS011;41131;42.990;21.954;2022-10-17T03:18:08;31.80;;;17.45;;
55268;SDS011;41131;42.990;21.954;2022-10-17T03:20:34;20.08;;;12.82;;
55268;SDS011;41131;42.990;21.954;2022-10-17T03:23:00;20.02;;;11.82;;
55268;SDS011;41131;42.990;21.954;2022-10-17T03:25:26;24.00;;;13.43;;
55268;SDS011;41131;42.990;21.954;2022-10-17T03:27:52;18.85;;;13.45;;
55268;SDS011;41131;42.990;21.954;2022-10-17T03:30:18;20.55;;;13.40;;
55268;SDS011;41131;42.990;21.954;2022-10-17T03:32:45;24.00;;;13.57;;
55268;SDS011;41131;42.990;21.954;2022-10-17T03:35:11;23.23;;;13.65;;
55268;SDS011;41131;42.990;21.954;2022-10-17T03:37:37;22.63;;;13.40;;
55268;SDS011;41131;42.990;21.954;2022-10-17T03:40:03;19.08;;;12.07;;
55268;SDS011;41131;42.990;21.954;2022-10-17T03:42:30;21.58;;;13.80;;
55268;SDS011;41131;42.990;21.954;2022-10-17T03:44:56;24.52;;;12.63;;
55268;SDS011;41131;42.990;21.954;2022-10-17T03:47:22;19.52;;;11.85;;
55268;SDS011;41131;42.990;21.954;2022-10-17T03:49:48;19.10;;;12.27;;
55268;SDS011;41131;42.990;21.954;2022-10-17T03:52:14;16.88;;;11.48;;
55268;SDS011;41131;42.990;21.954;2022-10-17T03:54:40;20.67;;;11.77;;
55268;SDS011;41131;42.990;21.954;2022-10-17T03:57:06;19.40;;;12.32;;
55268;SDS011;41131;42.990;21.954;2022-10-17T03:59:35;18.75;;;11.45;;
55268;SDS011;41131;42.990;21.954;2022-10-17T04:02:01;20.88;;;12.15;;
55268;SDS011;41131;42.990;21.954;2022-10-17T04:04:27;22.67;;;11.77;;
55268;SDS011;41131;42.990;21.954;2022-10-17T04:06:54;16.98;;;12.10;;
55268;SDS011;41131;42.990;21.954;2022-10-17T04:09:20;19.67;;;11.63;;
55268;SDS011;41131;42.990;21.954;2022-10-17T04:11:46;19.42;;;10.63;;
55268;SDS011;41131;42.990;21.954;2022-10-17T04:14:12;24.88;;;15.02;;
55268;SDS011;41131;42.990;21.954;2022-10-17T04:16:38;25.75;;;13.68;;
55268;SDS011;41131;42.990;21.954;2022-10-17T04:19:04;20.75;;;12.77;;
55268;SDS011;41131;42.990;21.954;2022-10-17T04:21:30;23.95;;;13.23;;
55268;SDS011;41131;42.990;21.954;2022-10-17T04:23:57;21.27;;;12.52;;
55268;SDS011;41131;42.990;21.954;2022-10-17T04:26:24;19.10;;;13.43;;
55268;SDS011;41131;42.990;21.954;2022-10-17T04:28:50;20.48;;;12.88;;
55268;SDS011;41131;42.990;21.954;2022-10-17T04:31:16;19.13;;;13.95;;
55268;SDS011;41131;42.990;21.954;2022-10-17T04:33:45;20.17;;;15.80;;
55268;SDS011;41131;42.990;21.954;2022-10-17T04:36:12;19.70;;;14.75;;
55268;SDS011;41131;42.990;21.954;2022-10-17T04:38:39;23.95;;;14.10;;
55268;SDS011;41131;42.990;21.954;2022-10-17T04:41:06;23.58;;;14.55;;
55268;SDS011;41131;42.990;21.954;2022-10-17T04:43:33;26.50;;;15.13;;
55268;SDS011;41131;42.990;21.954;2022-10-17T04:46:00;19.02;;;14.20;;
55268;SDS011;41131;42.990;21.954;2022-10-17T04:48:27;27.45;;;15.25;;
55268;SDS011;41131;42.990;21.954;2022-10-17T04:50:57;26.35;;;14.55;;
55268;SDS011;41131;42.990;21.954;2022-10-17T04:53:24;30.67;;;15.30;;
55268;SDS011;41131;42.990;21.954;2022-10-17T04:55:51;34.70;;;16.90;;
55268;SDS011;41131;42.990;21.954;2022-10-17T04:58:17;30.85;;;16.45;;
55268;SDS011;41131;42.990;21.954;2022-10-17T05:00:44;27.30;;;16.50;;
55268;SDS011;41131;42.990;21.954;2022-10-17T05:03:10;24.40;;;15.52;;
55268;SDS011;41131;42.990;21.954;2022-10-17T05:05:37;27.88;;;18.08;;
55268;SDS011;41131;42.990;21.954;2022-10-17T05:08:03;29.85;;;18.35;;
55268;SDS011;41131;42.990;21.954;2022-10-17T05:10:30;29.20;;;18.00;;
55268;SDS011;41131;42.990;21.954;2022-10-17T05:12:56;34.03;;;22.88;;
55268;SDS011;41131;42.990;21.954;2022-10-17T05:15:22;42.20;;;28.20;;
55268;SDS011;41131;42.990;21.954;2022-10-17T05:17:48;63.88;;;33.60;;
55268;SDS011;41131;42.990;21.954;2022-10-17T05:20:18;65.15;;;38.90;;
55268;SDS011;41131;42.990;21.954;2022-10-17T05:22:44;52.90;;;32.38;;
55268;SDS011;41131;42.990;21.954;2022-10-17T05:25:10;45.72;;;28.25;;
55268;SDS011;41131;42.990;21.954;2022-10-17T05:27:37;51.38;;;31.48;;
55268;SDS011;41131;42.990;21.954;2022-10-17T05:30:03;36.22;;;23.02;;
55268;SDS011;41131;42.990;21.954;2022-10-17T05:32:29;40.10;;;26.73;;
55268;SDS011;41131;42.990;21.954;2022-10-17T05:34:55;67.35;;;42.15;;
55268;SDS011;41131;42.990;21.954;2022-10-17T05:37:21;34.08;;;24.17;;
55268;SDS011;41131;42.990;21.954;2022-10-17T05:39:47;36.80;;;22.33;;
55268;SDS011;41131;42.990;21.954;2022-10-17T05:42:13;30.10;;;19.13;;
55268;SDS011;41131;42.990;21.954;2022-10-17T05:44:39;25.02;;;16.13;;
55268;SDS011;41131;42.990;21.954;2022-10-17T05:47:06;28.23;;;17.42;;
55268;SDS011;41131;42.990;21.954;2022-10-17T05:49:33;28.58;;;17.17;;
55268;SDS011;41131;42.990;21.954;2022-10-17T05:51:59;31.08;;;21.08;;
55268;SDS011;41131;42.990;21.954;2022-10-17T05:54:25;54.33;;;36.25;;
55268;SDS011;41131;42.990;21.954;2022-10-17T05:56:52;37.60;;;22.95;;
55268;SDS011;41131;42.990;21.954;2022-10-17T05:59:18;32.50;;;20.27;;
55268;SDS011;41131;42.990;21.954;2022-10-17T06:01:44;36.78;;;27.98;;
55268;SDS011;41131;42.990;21.954;2022-10-17T06:04:10;38.47;;;25.00;;
55268;SDS011;41131;42.990;21.954;2022-10-17T06:06:37;41.90;;;28.38;;
55268;SDS011;41131;42.990;21.954;2022-10-17T06:09:03;43.58;;;25.08;;
55268;SDS011;41131;42.990;21.954;2022-10-17T06:11:29;33.83;;;22.17;;
55268;SDS011;41131;42.990;21.954;2022-10-17T06:13:55;37.85;;;25.60;;
55268;SDS011;41131;42.990;21.954;2022-10-17T06:16:21;39.80;;;26.42;;
55268;SDS011;41131;42.990;21.954;2022-10-17T06:18:47;34.17;;;24.35;;
55268;SDS011;41131;42.990;21.954;2022-10-17T06:21:14;41.58;;;28.63;;
55268;SDS011;41131;42.990;21.954;2022-10-17T06:23:41;59.22;;;31.70;;
55268;SDS011;41131;42.990;21.954;2022-10-17T06:26:07;67.05;;;36.95;;
55268;SDS011;41131;42.990;21.954;2022-10-17T06:28:34;61.50;;;35.22;;
55268;SDS011;41131;42.990;21.954;2022-10-17T06:31:07;56.53;;;34.50;;
55268;SDS011;41131;42.990;21.954;2022-10-17T06:33:33;60.70;;;38.20;;
55268;SDS011;41131;42.990;21.954;2022-10-17T06:36:00;69.38;;;39.30;;
55268;SDS011;41131;42.990;21.954;2022-10-17T06:38:26;62.50;;;38.90;;
55268;SDS011;41131;42.990;21.954;2022-10-17T06:40:52;81.15;;;39.17;;
55268;SDS011;41131;42.990;21.954;2022-10-17T06:43:18;71.68;;;37.55;;
55268;SDS011;41131;42.990;21.954;2022-10-17T06:45:45;62.67;;;37.67;;
55268;SDS011;41131;42.990;21.954;2022-10-17T06:48:11;55.17;;;38.72;;
55268;SDS011;41131;42.990;21.954;2022-10-17T06:50:38;61.20;;;38.05;;
55268;SDS011;41131;42.990;21.954;2022-10-17T06:53:04;69.28;;;42.20;;
55268;SDS011;41131;42.990;21.954;2022-10-17T06:55:30;66.45;;;41.10;;
55268;SDS011;41131;42.990;21.954;2022-10-17T06:57:57;59.75;;;38.65;;
55268;SDS011;41131;42.990;21.954;2022-10-17T07:00:23;64.68;;;38.80;;
55268;SDS011;41131;42.990;21.954;2022-10-17T07:02:50;67.40;;;42.45;;
55268;SDS011;41131;42.990;21.954;2022-10-17T07:05:17;69.15;;;43.92;;
55268;SDS011;41131;42.990;21.954;2022-10-17T07:07:43;68.55;;;41.88;;
55268;SDS011;41131;42.990;21.954;2022-10-17T07:10:09;75.13;;;45.17;;
55268;SDS011;41131;42.990;21.954;2022-10-17T07:12:36;58.20;;;40.15;;
55268;SDS011;41131;42.990;21.954;2022-10-17T07:15:03;61.58;;;45.08;;
55268;SDS011;41131;42.990;21.954;2022-10-17T07:17:29;56.92;;;39.97;;
55268;SDS011;41131;42.990;21.954;2022-10-17T07:19:56;110.35;;;82.82;;
55268;SDS011;41131;42.990;21.954;2022-10-17T07:22:22;55.83;;;41.78;;
55268;SDS011;41131;42.990;21.954;2022-10-17T07:24:48;76.28;;;57.08;;
55268;SDS011;41131;42.990;21.954;2022-10-17T07:27:14;88.38;;;60.22;;
55268;SDS011;41131;42.990;21.954;2022-10-17T07:29:40;50.35;;;35.92;;
55268;SDS011;41131;42.990;21.954;2022-10-17T07:32:06;38.50;;;27.27;;
55268;SDS011;41131;42.990;21.954;2022-10-17T07:34:33;48.25;;;29.55;;
55268;SDS011;41131;42.990;21.954;2022-10-17T07:36:59;35.63;;;27.73;;
55268;SDS011;41131;42.990;21.954;2022-10-17T07:39:26;35.45;;;25.92;;
55268;SDS011;41131;42.990;21.954;2022-10-17T07:41:52;30.23;;;23.98;;
55268;SDS011;41131;42.990;21.954;2022-10-17T07:44:18;31.88;;;23.17;;
55268;SDS011;41131;42.990;21.954;2022-10-17T07:46:44;38.25;;;28.95;;
55268;SDS011;41131;42.990;21.954;2022-10-17T07:49:10;38.08;;;28.30;;
55268;SDS011;41131;42.990;21.954;2022-10-17T07:51:36;33.08;;;25.92;;
55268;SDS011;41131;42.990;21.954;2022-10-17T07:54:03;37.40;;;27.42;;
55268;SDS011;41131;42.990;21.954;2022-10-17T07:56:30;41.53;;;28.05;;
55268;SDS011;41131;42.990;21.954;2022-10-17T07:58:56;43.60;;;31.17;;
55268;SDS011;41131;42.990;21.954;2022-10-17T08:01:22;41.83;;;27.88;;
55268;SDS011;41131;42.990;21.954;2022-10-17T08:03:49;43.00;;;28.10;;
55268;SDS011;41131;42.990;21.954;2022-10-17T08:06:16;39.80;;;28.98;;
55268;SDS011;41131;42.990;21.954;2022-10-17T08:08:42;38.65;;;28.67;;
55268;SDS011;41131;42.990;21.954;2022-10-17T08:11:09;39.75;;;26.60;;
55268;SDS011;41131;42.990;21.954;2022-10-17T08:13:36;48.45;;;31.27;;
55268;SDS011;41131;42.990;21.954;2022-10-17T08:16:03;51.03;;;31.98;;
55268;SDS011;41131;42.990;21.954;2022-10-17T08:18:31;43.10;;;31.35;;
55268;SDS011;41131;42.990;21.954;2022-10-17T08:21:00;45.95;;;32.25;;
55268;SDS011;41131;42.990;21.954;2022-10-17T08:23:27;52.75;;;35.28;;
55268;SDS011;41131;42.990;21.954;2022-10-17T08:25:53;42.20;;;33.72;;
55268;SDS011;41131;42.990;21.954;2022-10-17T08:28:19;47.20;;;33.20;;
55268;SDS011;41131;42.990;21.954;2022-10-17T08:30:45;48.03;;;36.35;;
55268;SDS011;41131;42.990;21.954;2022-10-17T08:33:11;55.45;;;37.17;;
55268;SDS011;41131;42.990;21.954;2022-10-17T08:35:38;44.95;;;34.50;;
55268;SDS011;41131;42.990;21.954;2022-10-17T08:38:06;68.30;;;36.08;;
55268;SDS011;41131;42.990;21.954;2022-10-17T08:40:34;61.33;;;46.25;;
55268;SDS011;41131;42.990;21.954;2022-10-17T08:43:16;58.15;;;42.50;;
55268;SDS011;41131;42.990;21.954;2022-10-17T08:48:17;44.05;;;34.25;;
55268;SDS011;41131;42.990;21.954;2022-10-17T08:53:21;49.63;;;34.35;;
55268;SDS011;41131;42.990;21.954;2022-10-17T08:55:48;45.20;;;32.88;;
55268;SDS011;41131;42.990;21.954;2022-10-17T08:58:28;37.53;;;28.73;;
55268;SDS011;41131;42.990;21.954;2022-10-17T09:06:27;38.83;;;28.02;;
55268;SDS011;41131;42.990;21.954;2022-10-17T09:09:00;36.35;;;27.23;;
55268;SDS011;41131;42.990;21.954;2022-10-17T09:19:41;33.03;;;23.88;;
55268;SDS011;41131;42.990;21.954;2022-10-17T09:22:09;32.60;;;27.38;;
55268;SDS011;41131;42.990;21.954;2022-10-17T09:24:47;28.25;;;24.75;;
55268;SDS011;41131;42.990;21.954;2022-10-17T09:29:44;33.35;;;22.02;;
55268;SDS011;41131;42.990;21.954;2022-10-17T09:32:15;28.38;;;22.05;;
55268;SDS011;41131;42.990;21.954;2022-10-17T09:34:42;29.23;;;23.27;;
55268;SDS011;41131;42.990;21.954;2022-10-17T09:37:12;27.92;;;21.33;;
55268;SDS011;41131;42.990;21.954;2022-10-17T09:39:41;24.77;;;20.45;;
55268;SDS011;41131;42.990;21.954;2022-10-17T09:42:17;30.25;;;22.33;;
55268;SDS011;41131;42.990;21.954;2022-10-17T09:44:56;27.58;;;20.20;;
55268;SDS011;41131;42.990;21.954;2022-10-17T09:47:30;26.70;;;21.35;;
55268;SDS011;41131;42.990;21.954;2022-10-17T09:49:59;32.72;;;24.63;;
55268;SDS011;41131;42.990;21.954;2022-10-17T09:52:27;21.75;;;17.02;;
55268;SDS011;41131;42.990;21.954;2022-10-17T09:54:57;23.38;;;17.90;;
55268;SDS011;41131;42.990;21.954;2022-10-17T09:57:24;24.10;;;18.80;;
55268;SDS011;41131;42.990;21.954;2022-10-17T10:00:02;24.05;;;18.48;;
55268;SDS011;41131;42.990;21.954;2022-10-17T10:02:29;28.60;;;15.75;;
55268;SDS011;41131;42.990;21.954;2022-10-17T10:07:27;22.35;;;13.90;;
55268;SDS011;41131;42.990;21.954;2022-10-17T10:09:53;16.90;;;10.23;;
55268;SDS011;41131;42.990;21.954;2022-10-17T10:12:24;21.25;;;14.20;;
55268;SDS011;41131;42.990;21.954;2022-10-17T10:14:51;27.63;;;15.03;;
55268;SDS011;41131;42.990;21.954;2022-10-17T10:17:37;21.23;;;15.32;;
55268;SDS011;41131;42.990;21.954;2022-10-17T10:20:26;21.38;;;16.25;;
55268;SDS011;41131;42.990;21.954;2022-10-17T10:26:00;17.98;;;11.68;;
55268;SDS011;41131;42.990;21.954;2022-10-17T10:28:25;18.55;;;12.95;;
55268;SDS011;41131;42.990;21.954;2022-10-17T10:30:53;17.48;;;13.30;;
55268;SDS011;41131;42.990;21.954;2022-10-17T10:33:21;16.60;;;11.95;;
55268;SDS011;41131;42.990;21.954;2022-10-17T10:35:54;14.77;;;11.18;;
55268;SDS011;41131;42.990;21.954;2022-10-17T10:38:20;16.60;;;13.10;;
55268;SDS011;41131;42.990;21.954;2022-10-17T10:40:47;16.73;;;11.98;;
55268;SDS011;41131;42.990;21.954;2022-10-17T10:43:26;15.90;;;10.95;;
55268;SDS011;41131;42.990;21.954;2022-10-17T10:45:54;14.80;;;9.43;;
55268;SDS011;41131;42.990;21.954;2022-10-17T10:48:24;14.25;;;11.85;;
55268;SDS011;41131;42.990;21.954;2022-10-17T10:56:24;30.08;;;26.98;;
55268;SDS011;41131;42.990;21.954;2022-10-17T11:01:26;18.88;;;15.07;;
55268;SDS011;41131;42.990;21.954;2022-10-17T11:06:33;15.77;;;12.50;;
55268;SDS011;41131;42.990;21.954;2022-10-17T11:11:51;36.40;;;23.58;;
55268;SDS011;41131;42.990;21.954;2022-10-17T11:17:00;25.10;;;17.55;;
55268;SDS011;41131;42.990;21.954;2022-10-17T11:19:30;22.25;;;16.85;;
55268;SDS011;41131;42.990;21.954;2022-10-17T11:24:58;24.27;;;15.00;;
55268;SDS011;41131;42.990;21.954;2022-10-17T11:27:25;21.25;;;13.43;;
55268;SDS011;41131;42.990;21.954;2022-10-17T11:29:52;17.83;;;12.73;;
55268;SDS011;41131;42.990;21.954;2022-10-17T11:32:23;19.92;;;12.02;;
55268;SDS011;41131;42.990;21.954;2022-10-17T11:34:52;18.70;;;13.73;;
55268;SDS011;41131;42.990;21.954;2022-10-17T11:37:20;16.58;;;10.88;;
55268;SDS011;41131;42.990;21.954;2022-10-17T11:42:24;27.58;;;23.63;;
55268;SDS011;41131;42.990;21.954;2022-10-17T11:44:54;20.63;;;12.85;;
55268;SDS011;41131;42.990;21.954;2022-10-17T11:50:11;17.33;;;11.25;;
55268;SDS011;41131;42.990;21.954;2022-10-17T11:52:43;14.13;;;9.07;;
55268;SDS011;41131;42.990;21.954;2022-10-17T12:05:03;15.32;;;11.05;;
55268;SDS011;41131;42.990;21.954;2022-10-17T12:07:45;18.23;;;11.23;;
55268;SDS011;41131;42.990;21.954;2022-10-17T12:12:39;14.68;;;10.00;;
55268;SDS011;41131;42.990;21.954;2022-10-17T12:17:44;18.40;;;11.85;;
55268;SDS011;41131;42.990;21.954;2022-10-17T12:22:49;16.52;;;9.68;;
55268;SDS011;41131;42.990;21.954;2022-10-17T12:27:48;16.55;;;12.90;;
55268;SDS011;41131;42.990;21.954;2022-10-17T12:30:16;21.40;;;16.92;;
55268;SDS011;41131;42.990;21.954;2022-10-17T12:35:25;15.25;;;10.90;;
55268;SDS011;41131;42.990;21.954;2022-10-17T12:45:47;11.45;;;8.43;;
55268;SDS011;41131;42.990;21.954;2022-10-17T12:51:06;16.02;;;9.73;;
55268;SDS011;41131;42.990;21.954;2022-10-17T12:56:47;14.15;;;7.55;;
55268;SDS011;41131;42.990;21.954;2022-10-17T13:01:42;13.68;;;8.13;;
55268;SDS011;41131;42.990;21.954;2022-10-17T13:04:10;17.83;;;8.07;;
55268;SDS011;41131;42.990;21.954;2022-10-17T13:06:43;13.20;;;6.93;;
55268;SDS011;41131;42.990;21.954;2022-10-17T13:12:00;31.17;;;15.65;;
55268;SDS011;41131;42.990;21.954;2022-10-17T13:14:27;12.82;;;8.10;;
55268;SDS011;41131;42.990;21.954;2022-10-17T13:17:03;16.15;;;7.55;;
55268;SDS011;41131;42.990;21.954;2022-10-17T13:19:31;11.38;;;6.13;;
55268;SDS011;41131;42.990;21.954;2022-10-17T13:22:09;19.00;;;6.68;;
55268;SDS011;41131;42.990;21.954;2022-10-17T13:24:37;11.32;;;6.03;;
55268;SDS011;41131;42.990;21.954;2022-10-17T13:27:04;8.70;;;5.35;;
55268;SDS011;41131;42.990;21.954;2022-10-17T13:29:31;7.75;;;5.13;;
55268;SDS011;41131;42.990;21.954;2022-10-17T13:31:58;11.52;;;5.72;;
55268;SDS011;41131;42.990;21.954;2022-10-17T13:34:26;10.38;;;6.60;;
55268;SDS011;41131;42.990;21.954;2022-10-17T13:36:53;11.77;;;7.60;;
55268;SDS011;41131;42.990;21.954;2022-10-17T13:39:21;14.60;;;9.50;;
55268;SDS011;41131;42.990;21.954;2022-10-17T13:41:48;19.58;;;11.88;;
55268;SDS011;41131;42.990;21.954;2022-10-17T13:44:15;29.52;;;16.20;;
55268;SDS011;41131;42.990;21.954;2022-10-17T13:46:42;15.13;;;10.48;;
55268;SDS011;41131;42.990;21.954;2022-10-17T13:49:10;16.52;;;8.93;;
55268;SDS011;41131;42.990;21.954;2022-10-17T13:51:40;18.77;;;15.57;;
55268;SDS011;41131;42.990;21.954;2022-10-17T13:54:28;18.20;;;12.48;;
55268;SDS011;41131;42.990;21.954;2022-10-17T13:56:56;20.40;;;14.57;;
55268;SDS011;41131;42.990;21.954;2022-10-17T13:59:24;16.80;;;13.10;;
55268;SDS011;41131;42.990;21.954;2022-10-17T14:01:50;12.57;;;7.80;;
55268;SDS011;41131;42.990;21.954;2022-10-17T14:04:17;14.15;;;9.43;;
55268;SDS011;41131;42.990;21.954;2022-10-17T14:06:44;71.60;;;62.75;;
55268;SDS011;41131;42.990;21.954;2022-10-17T14:09:21;193.50;;;148.95;;
55268;SDS011;41131;42.990;21.954;2022-10-17T14:11:59;15.20;;;12.07;;
55268;SDS011;41131;42.990;21.954;2022-10-17T14:14:25;13.02;;;9.00;;
55268;SDS011;41131;42.990;21.954;2022-10-17T14:16:52;20.77;;;12.10;;
55268;SDS011;41131;42.990;21.954;2022-10-17T14:21:46;10.85;;;7.72;;
55268;SDS011;41131;42.990;21.954;2022-10-17T14:26:48;13.40;;;7.72;;
55268;SDS011;41131;42.990;21.954;2022-10-17T14:29:19;11.95;;;7.75;;
55268;SDS011;41131;42.990;21.954;2022-10-17T14:31:45;16.63;;;9.88;;
55268;SDS011;41131;42.990;21.954;2022-10-17T14:34:23;13.43;;;8.30;;
55268;SDS011;41131;42.990;21.954;2022-10-17T14:36:50;19.65;;;10.57;;
55268;SDS011;41131;42.990;21.954;2022-10-17T14:39:18;13.20;;;9.02;;
55268;SDS011;41131;42.990;21.954;2022-10-17T14:41:44;21.75;;;10.93;;
55268;SDS011;41131;42.990;21.954;2022-10-17T14:46:44;24.00;;;10.95;;
55268;SDS011;41131;42.990;21.954;2022-10-17T14:49:16;22.30;;;12.90;;
55268;SDS011;41131;42.990;21.954;2022-10-17T14:54:29;19.70;;;14.10;;
55268;SDS011;41131;42.990;21.954;2022-10-17T14:56:56;29.35;;;21.70;;
55268;SDS011;41131;42.990;21.954;2022-10-17T14:59:22;24.15;;;16.35;;
55268;SDS011;41131;42.990;21.954;2022-10-17T15:01:50;24.38;;;15.85;;
55268;SDS011;41131;42.990;21.954;2022-10-17T15:04:16;22.80;;;17.70;;
55268;SDS011;41131;42.990;21.954;2022-10-17T15:06:43;34.92;;;21.52;;
55268;SDS011;41131;42.990;21.954;2022-10-17T15:09:10;31.92;;;21.33;;
55268;SDS011;41131;42.990;21.954;2022-10-17T15:11:36;27.33;;;19.60;;
55268;SDS011;41131;42.990;21.954;2022-10-17T15:14:03;34.42;;;19.67;;
55268;SDS011;41131;42.990;21.954;2022-10-17T15:16:30;33.67;;;22.23;;
55268;SDS011;41131;42.990;21.954;2022-10-17T15:18:56;29.27;;;20.23;;
55268;SDS011;41131;42.990;21.954;2022-10-17T15:21:23;67.45;;;50.50;;
55268;SDS011;41131;42.990;21.954;2022-10-17T15:23:49;88.80;;;69.68;;
55268;SDS011;41131;42.990;21.954;2022-10-17T15:26:19;97.63;;;77.55;;
55268;SDS011;41131;42.990;21.954;2022-10-17T15:28:46;66.18;;;49.25;;
55268;SDS011;41131;42.990;21.954;2022-10-17T15:31:14;67.82;;;46.97;;
55268;SDS011;41131;42.990;21.954;2022-10-17T15:33:41;76.40;;;52.17;;
55268;SDS011;41131;42.990;21.954;2022-10-17T15:36:20;85.15;;;61.00;;
55268;SDS011;41131;42.990;21.954;2022-10-17T15:38:47;84.95;;;59.42;;
55268;SDS011;41131;42.990;21.954;2022-10-17T15:41:13;103.03;;;75.88;;
55268;SDS011;41131;42.990;21.954;2022-10-17T15:43:40;118.82;;;71.07;;
55268;SDS011;41131;42.990;21.954;2022-10-17T15:46:10;112.50;;;71.78;;
55268;SDS011;41131;42.990;21.954;2022-10-17T15:48:37;110.95;;;74.18;;
55268;SDS011;41131;42.990;21.954;2022-10-17T15:51:03;100.63;;;69.15;;
55268;SDS011;41131;42.990;21.954;2022-10-17T15:53:29;138.45;;;90.72;;
55268;SDS011;41131;42.990;21.954;2022-10-17T15:55:57;127.30;;;86.28;;
55268;SDS011;41131;42.990;21.954;2022-10-17T15:58:24;161.63;;;103.47;;
55268;SDS011;41131;42.990;21.954;2022-10-17T16:00:52;176.20;;;106.85;;
55268;SDS011;41131;42.990;21.954;2022-10-17T16:03:18;154.25;;;104.78;;
55268;SDS011;41131;42.990;21.954;2022-10-17T16:05:44;132.98;;;97.30;;
55268;SDS011;41131;42.990;21.954;2022-10-17T16:08:10;119.03;;;90.10;;
55268;SDS011;41131;42.990;21.954;2022-10-17T16:10:38;122.35;;;93.05;;
55268;SDS011;41131;42.990;21.954;2022-10-17T16:13:04;110.13;;;86.30;;
55268;SDS011;41131;42.990;21.954;2022-10-17T16:15:31;116.32;;;85.68;;
55268;SDS011;41131;42.990;21.954;2022-10-17T16:17:57;112.05;;;74.15;;
55268;SDS011;41131;42.990;21.954;2022-10-17T16:20:23;92.95;;;66.32;;
55268;SDS011;41131;42.990;21.954;2022-10-17T16:22:50;74.82;;;54.38;;
55268;SDS011;41131;42.990;21.954;2022-10-17T16:25:18;74.28;;;51.60;;
55268;SDS011;41131;42.990;21.954;2022-10-17T16:27:44;66.20;;;49.38;;
55268;SDS011;41131;42.990;21.954;2022-10-17T16:30:11;54.50;;;43.50;;